Etusivu
METAR-TAF:

METAR-TAF

Lentoasemat :

Monte Malanotte

Prato Nevoso, Italia

Leveyspiiri: 44-15N, Pituuspiiri: 007-48E, korkeus merenpinnasta: 1741 m

Tämänhetkinen sää

Tämä raportti tehtiin 42 minuuttia sitten, kello 10.55 UTC
Tuuli 3 kn idästä
Lämpötila 23°C
Kosteus 69%
Ilmanpaine 1019 hPa
Näkyvyys 10 km tai enemmän
ei pilviä alle 1500 m:ssä eikä cumulonimbus-pilviä

METAR: LIMY 081055Z 09003KT CAVOK 23/17 Q1019 RMK FEW FEW080 VAL FOSCHIA VIS MIN 9999

Aika: 13:37 (11:37 UTC)


TAF: puuttuu

Säähavainnot ja -ennusteet yli 4000 lentoasemalta (METAR- ja TAF-raportit).

Käytössä olevat sääasemat on merkitty karttaan keltaisilla ja punaisilla pisteillä.

Aseta hiiri pisteen päälle nähdäksesi sääaseman nimen.

Klikkaa sitten nähdäksesi säähavainnot ja -ennusteet.

Kartan vaihtaminen: klikkaa mustalla rastilla varustettuja vihreitä pisteitä, niin voit zoomata sisään; viivalla varustettua vihreää pistettä, niin voit zoomata ulos tai vihreitä nuolia, niin pääset viereisille kartoille.


METAR-TAF: